sensor_id;sensor_type;location;lat;lon;timestamp;pressure;altitude;pressure_sealevel;temperature;humidity
6393;BME280;3229;42.674;23.282;2023-02-12T00:01:13;95533.22;;;6.25;38.50
6393;BME280;3229;42.674;23.282;2023-02-12T00:03:41;95567.63;;;6.45;38.53
6393;BME280;3229;42.674;23.282;2023-02-12T00:06:08;95568.53;;;6.44;38.63
6393;BME280;3229;42.674;23.282;2023-02-12T00:08:36;95564.44;;;6.42;38.64
6393;BME280;3229;42.674;23.282;2023-02-12T00:11:08;95566.81;;;6.45;38.66
6393;BME280;3229;42.674;23.282;2023-02-12T00:13:37;95564.38;;;6.43;38.67
6393;BME280;3229;42.674;23.282;2023-02-12T00:16:06;95579.69;;;6.42;38.62
6393;BME280;3229;42.674;23.282;2023-02-12T00:18:33;95570.31;;;6.42;38.70
6393;BME280;3229;42.674;23.282;2023-02-12T00:21:00;95557.19;;;6.36;38.94
6393;BME280;3229;42.674;23.282;2023-02-12T00:23:27;95568.81;;;6.40;38.77
6393;BME280;3229;42.674;23.282;2023-02-12T00:25:54;95566.25;;;6.40;38.77
6393;BME280;3229;42.674;23.282;2023-02-12T00:28:21;95553.09;;;6.33;38.74
6393;BME280;3229;42.674;23.282;2023-02-12T00:30:49;95567.25;;;6.37;38.70
6393;BME280;3229;42.674;23.282;2023-02-12T00:33:16;95555.63;;;6.33;38.88
6393;BME280;3229;42.674;23.282;2023-02-12T00:35:42;95564.00;;;6.35;38.95
6393;BME280;3229;42.674;23.282;2023-02-12T00:38:09;95532.41;;;6.25;39.05
6393;BME280;3229;42.674;23.282;2023-02-12T00:40:36;95541.84;;;6.37;38.95
6393;BME280;3229;42.674;23.282;2023-02-12T00:43:03;95536.13;;;6.34;38.83
6393;BME280;3229;42.674;23.282;2023-02-12T00:45:30;95536.88;;;6.36;38.88
6393;BME280;3229;42.674;23.282;2023-02-12T00:47:58;95536.88;;;6.36;38.91
6393;BME280;3229;42.674;23.282;2023-02-12T00:50:25;95528.44;;;6.35;38.96
6393;BME280;3229;42.674;23.282;2023-02-12T00:52:52;95526.69;;;6.36;39.00
6393;BME280;3229;42.674;23.282;2023-02-12T00:55:19;95520.81;;;6.35;39.05
6393;BME280;3229;42.674;23.282;2023-02-12T00:57:45;95519.09;;;6.36;38.97
6393;BME280;3229;42.674;23.282;2023-02-12T01:00:14;95501.47;;;6.33;39.03
6393;BME280;3229;42.674;23.282;2023-02-12T01:02:41;95505.56;;;6.35;39.05
6393;BME280;3229;42.674;23.282;2023-02-12T01:05:09;95505.56;;;6.35;39.11
6393;BME280;3229;42.674;23.282;2023-02-12T01:07:36;95503.91;;;6.34;39.13
6393;BME280;3229;42.674;23.282;2023-02-12T01:10:06;95502.38;;;6.32;39.11
6393;BME280;3229;42.674;23.282;2023-02-12T01:12:33;95511.53;;;6.34;39.10
6393;BME280;3229;42.674;23.282;2023-02-12T01:15:00;95509.81;;;6.35;39.04
6393;BME280;3229;42.674;23.282;2023-02-12T01:17:27;95514.88;;;6.35;39.22
6393;BME280;3229;42.674;23.282;2023-02-12T01:19:56;95506.38;;;6.36;38.96
6393;BME280;3229;42.674;23.282;2023-02-12T01:22:25;95518.28;;;6.35;39.14
6393;BME280;3229;42.674;23.282;2023-02-12T01:24:51;95522.34;;;6.38;39.05
6393;BME280;3229;42.674;23.282;2023-02-12T01:27:18;95518.06;;;6.38;39.24
6393;BME280;3229;42.674;23.282;2023-02-12T01:29:45;95522.44;;;6.36;39.22
6393;BME280;3229;42.674;23.282;2023-02-12T01:32:12;95524.81;;;6.39;39.08
6393;BME280;3229;42.674;23.282;2023-02-12T01:34:39;95530.75;;;6.38;39.07
6393;BME280;3229;42.674;23.282;2023-02-12T01:37:05;95525.50;;;6.41;39.05
6393;BME280;3229;42.674;23.282;2023-02-12T01:39:34;95522.06;;;6.42;39.17
6393;BME280;3229;42.674;23.282;2023-02-12T01:42:01;95516.97;;;6.42;39.32
6393;BME280;3229;42.674;23.282;2023-02-12T01:44:31;95518.81;;;6.40;39.28
6393;BME280;3229;42.674;23.282;2023-02-12T01:47:01;95494.66;;;6.33;39.17
6393;BME280;3229;42.674;23.282;2023-02-12T01:49:32;95493.22;;;6.43;39.22
6393;BME280;3229;42.674;23.282;2023-02-12T01:52:04;95500.84;;;6.43;39.31
6393;BME280;3229;42.674;23.282;2023-02-12T01:54:35;95483.88;;;6.44;39.48
6393;BME280;3229;42.674;23.282;2023-02-12T01:57:05;95498.31;;;6.43;39.52
6393;BME280;3229;42.674;23.282;2023-02-12T01:59:33;95501.72;;;6.42;39.33
6393;BME280;3229;42.674;23.282;2023-02-12T02:02:02;95500.91;;;6.42;39.43
6393;BME280;3229;42.674;23.282;2023-02-12T02:04:35;95505.19;;;6.41;39.43
6393;BME280;3229;42.674;23.282;2023-02-12T02:07:03;95501.03;;;6.40;39.59
6393;BME280;3229;42.674;23.282;2023-02-12T02:09:33;95431.94;;;5.92;39.53
6393;BME280;3229;42.674;23.282;2023-02-12T02:12:03;95499.47;;;6.38;39.52
6393;BME280;3229;42.674;23.282;2023-02-12T02:14:48;95509.56;;;6.39;39.49
6393;BME280;3229;42.674;23.282;2023-02-12T02:17:40;95502.00;;;6.38;39.67
6393;BME280;3229;42.674;23.282;2023-02-12T02:20:25;95499.56;;;6.36;39.81
6393;BME280;3229;42.674;23.282;2023-02-12T02:23:08;95499.63;;;6.35;39.76
6393;BME280;3229;42.674;23.282;2023-02-12T02:25:51;95503.03;;;6.35;39.84
6393;BME280;3229;42.674;23.282;2023-02-12T02:28:52;95496.28;;;6.34;39.88
6393;BME280;3229;42.674;23.282;2023-02-12T02:31:24;95488.88;;;6.31;39.95
6393;BME280;3229;42.674;23.282;2023-02-12T02:33:54;95466.56;;;6.22;39.98
6393;BME280;3229;42.674;23.282;2023-02-12T02:36:27;95484.50;;;6.33;39.79
6393;BME280;3229;42.674;23.282;2023-02-12T02:39:04;95487.84;;;6.34;39.91
6393;BME280;3229;42.674;23.282;2023-02-12T02:41:37;95457.03;;;6.11;39.97
6393;BME280;3229;42.674;23.282;2023-02-12T02:44:13;95491.94;;;6.36;40.09
6393;BME280;3229;42.674;23.282;2023-02-12T02:46:46;95480.34;;;6.32;40.09
6393;BME280;3229;42.674;23.282;2023-02-12T02:49:16;95469.28;;;6.19;40.18
6393;BME280;3229;42.674;23.282;2023-02-12T02:51:48;95500.91;;;6.42;40.16
6393;BME280;3229;42.674;23.282;2023-02-12T02:54:20;95495.75;;;6.43;40.17
6393;BME280;3229;42.674;23.282;2023-02-12T02:56:50;95497.28;;;6.46;40.15
6393;BME280;3229;42.674;23.282;2023-02-12T02:59:22;95500.56;;;6.48;40.16
6393;BME280;3229;42.674;23.282;2023-02-12T03:01:57;95499.66;;;6.49;40.12
6393;BME280;3229;42.674;23.282;2023-02-12T03:04:28;95497.91;;;6.49;40.21
6393;BME280;3229;42.674;23.282;2023-02-12T03:07:02;95505.44;;;6.51;40.33
6393;BME280;3229;42.674;23.282;2023-02-12T03:09:31;95500.28;;;6.52;40.16
6393;BME280;3229;42.674;23.282;2023-02-12T03:12:05;95505.25;;;6.54;40.19
6393;BME280;3229;42.674;23.282;2023-02-12T03:14:38;95490.56;;;6.45;40.16
6393;BME280;3229;42.674;23.282;2023-02-12T03:17:13;95473.34;;;6.36;40.32
6393;BME280;3229;42.674;23.282;2023-02-12T03:19:45;95507.41;;;6.60;40.32
6393;BME280;3229;42.674;23.282;2023-02-12T03:22:15;95498.81;;;6.63;40.40
6393;BME280;3229;42.674;23.282;2023-02-12T03:24:45;95492.81;;;6.64;40.63
6393;BME280;3229;42.674;23.282;2023-02-12T03:27:16;95496.09;;;6.66;40.46
6393;BME280;3229;42.674;23.282;2023-02-12T03:29:45;95496.78;;;6.68;40.52
6393;BME280;3229;42.674;23.282;2023-02-12T03:32:25;95489.00;;;6.71;40.42
6393;BME280;3229;42.674;23.282;2023-02-12T03:35:07;95493.03;;;6.73;40.50
6393;BME280;3229;42.674;23.282;2023-02-12T03:37:38;95490.44;;;6.75;40.57
6393;BME280;3229;42.674;23.282;2023-02-12T03:40:10;95488.59;;;6.77;40.43
6393;BME280;3229;42.674;23.282;2023-02-12T03:42:45;95497.88;;;6.78;40.56
6393;BME280;3229;42.674;23.282;2023-02-12T03:45:18;95490.16;;;6.79;40.62
6393;BME280;3229;42.674;23.282;2023-02-12T03:47:52;95488.41;;;6.80;40.54
6393;BME280;3229;42.674;23.282;2023-02-12T03:50:27;95459.59;;;6.67;40.61
6393;BME280;3229;42.674;23.282;2023-02-12T03:52:58;95479.16;;;6.79;40.65
6393;BME280;3229;42.674;23.282;2023-02-12T03:55:25;95485.75;;;6.82;40.53
6393;BME280;3229;42.674;23.282;2023-02-12T03:57:55;95482.53;;;6.79;40.66
6393;BME280;3229;42.674;23.282;2023-02-12T04:00:25;95492.69;;;6.79;40.71
6393;BME280;3229;42.674;23.282;2023-02-12T04:02:54;95496.75;;;6.82;40.67
6393;BME280;3229;42.674;23.282;2023-02-12T04:05:23;95494.19;;;6.82;40.62
6393;BME280;3229;42.674;23.282;2023-02-12T04:07:50;95469.28;;;6.74;40.80
6393;BME280;3229;42.674;23.282;2023-02-12T04:10:21;95462.03;;;6.68;40.62
6393;BME280;3229;42.674;23.282;2023-02-12T04:12:56;95489.34;;;6.79;40.75
6393;BME280;3229;42.674;23.282;2023-02-12T04:15:37;95487.72;;;6.78;40.77
6393;BME280;3229;42.674;23.282;2023-02-12T04:18:11;95491.94;;;6.77;40.91
6393;BME280;3229;42.674;23.282;2023-02-12T04:20:49;95502.13;;;6.77;41.21
6393;BME280;3229;42.674;23.282;2023-02-12T04:23:33;95503.22;;;6.73;40.95
6393;BME280;3229;42.674;23.282;2023-02-12T04:26:10;95503.13;;;6.75;41.10
6393;BME280;3229;42.674;23.282;2023-02-12T04:28:46;95495.81;;;6.70;40.99
6393;BME280;3229;42.674;23.282;2023-02-12T04:31:22;95502.41;;;6.73;41.01
6393;BME280;3229;42.674;23.282;2023-02-12T04:34:04;95502.50;;;6.71;41.15
6393;BME280;3229;42.674;23.282;2023-02-12T04:36:37;95503.31;;;6.72;41.23
6393;BME280;3229;42.674;23.282;2023-02-12T04:39:09;95495.06;;;6.68;41.09
6393;BME280;3229;42.674;23.282;2023-02-12T04:41:37;95505.97;;;6.70;41.21
6393;BME280;3229;42.674;23.282;2023-02-12T04:44:15;95515.22;;;6.71;41.24
6393;BME280;3229;42.674;23.282;2023-02-12T04:46:42;95511.88;;;6.71;41.20
6393;BME280;3229;42.674;23.282;2023-02-12T04:49:13;95517.88;;;6.70;41.23
6393;BME280;3229;42.674;23.282;2023-02-12T04:51:41;95519.59;;;6.69;41.36
6393;BME280;3229;42.674;23.282;2023-02-12T04:54:08;95519.50;;;6.71;41.46
6393;BME280;3229;42.674;23.282;2023-02-12T04:56:35;95512.31;;;6.63;41.31
6393;BME280;3229;42.674;23.282;2023-02-12T04:59:02;95527.94;;;6.71;41.42
6393;BME280;3229;42.674;23.282;2023-02-12T05:01:29;95533.00;;;6.71;41.38
6393;BME280;3229;42.674;23.282;2023-02-12T05:03:56;95536.38;;;6.72;41.45
6393;BME280;3229;42.674;23.282;2023-02-12T05:06:24;95530.28;;;6.74;41.43
6393;BME280;3229;42.674;23.282;2023-02-12T05:08:51;95535.44;;;6.73;41.50
6393;BME280;3229;42.674;23.282;2023-02-12T05:11:18;95536.19;;;6.75;41.50
6393;BME280;3229;42.674;23.282;2023-02-12T05:13:47;95546.25;;;6.76;41.36
6393;BME280;3229;42.674;23.282;2023-02-12T05:16:14;95543.72;;;6.76;41.54
6393;BME280;3229;42.674;23.282;2023-02-12T05:18:42;95537.19;;;6.72;41.43
6393;BME280;3229;42.674;23.282;2023-02-12T05:21:09;95525.94;;;6.62;41.54
6393;BME280;3229;42.674;23.282;2023-02-12T05:23:39;95556.34;;;6.78;41.56
6393;BME280;3229;42.674;23.282;2023-02-12T05:26:07;95553.81;;;6.78;41.59
6393;BME280;3229;42.674;23.282;2023-02-12T05:28:34;95551.16;;;6.79;41.68
6393;BME280;3229;42.674;23.282;2023-02-12T05:31:02;95554.97;;;6.72;41.54
6393;BME280;3229;42.674;23.282;2023-02-12T05:33:29;95530.28;;;6.60;41.51
6393;BME280;3229;42.674;23.282;2023-02-12T05:36:02;95559.50;;;6.82;41.74
6393;BME280;3229;42.674;23.282;2023-02-12T05:38:29;95567.94;;;6.82;41.67
6393;BME280;3229;42.674;23.282;2023-02-12T05:41:01;95570.41;;;6.84;41.85
6393;BME280;3229;42.674;23.282;2023-02-12T05:43:28;95574.66;;;6.83;41.83
6393;BME280;3229;42.674;23.282;2023-02-12T05:45:57;95573.00;;;6.82;41.98
6393;BME280;3229;42.674;23.282;2023-02-12T05:48:25;95575.47;;;6.84;41.91
6393;BME280;3229;42.674;23.282;2023-02-12T05:50:52;95577.09;;;6.85;42.10
6393;BME280;3229;42.674;23.282;2023-02-12T05:53:19;95582.38;;;6.82;42.10
6393;BME280;3229;42.674;23.282;2023-02-12T05:55:46;95587.28;;;6.85;42.23
6393;BME280;3229;42.674;23.282;2023-02-12T05:58:14;95586.38;;;6.86;42.42
6393;BME280;3229;42.674;23.282;2023-02-12T06:00:41;95586.38;;;6.86;42.34
6393;BME280;3229;42.674;23.282;2023-02-12T06:03:08;95582.09;;;6.86;42.27
6393;BME280;3229;42.674;23.282;2023-02-12T06:05:34;95588.91;;;6.86;42.46
6393;BME280;3229;42.674;23.282;2023-02-12T06:08:01;95595.66;;;6.87;42.57
6393;BME280;3229;42.674;23.282;2023-02-12T06:10:28;95590.56;;;6.87;42.77
6393;BME280;3229;42.674;23.282;2023-02-12T06:12:55;95597.28;;;6.88;42.63
6393;BME280;3229;42.674;23.282;2023-02-12T06:15:23;95587.09;;;6.88;43.08
6393;BME280;3229;42.674;23.282;2023-02-12T06:17:50;95559.25;;;6.72;42.86
6393;BME280;3229;42.674;23.282;2023-02-12T06:20:17;95584.47;;;6.89;43.16
6393;BME280;3229;42.674;23.282;2023-02-12T06:22:43;95592.09;;;6.89;43.35
6393;BME280;3229;42.674;23.282;2023-02-12T06:25:10;95590.28;;;6.91;43.16
6393;BME280;3229;42.674;23.282;2023-02-12T06:27:37;95597.81;;;6.93;43.33
6393;BME280;3229;42.674;23.282;2023-02-12T06:30:05;95600.25;;;6.94;43.44
6393;BME280;3229;42.674;23.282;2023-02-12T06:32:33;95595.91;;;6.96;43.49
6393;BME280;3229;42.674;23.282;2023-02-12T06:35:00;95592.34;;;6.99;43.73
6393;BME280;3229;42.674;23.282;2023-02-12T06:37:27;95588.97;;;6.98;43.83
6393;BME280;3229;42.674;23.282;2023-02-12T06:39:53;95597.13;;;7.03;43.98
6393;BME280;3229;42.674;23.282;2023-02-12T06:42:20;95598.69;;;7.06;44.09
6393;BME280;3229;42.674;23.282;2023-02-12T06:44:47;95588.50;;;7.06;44.33
6393;BME280;3229;42.674;23.282;2023-02-12T06:47:14;95521.16;;;6.58;44.43
6393;BME280;3229;42.674;23.282;2023-02-12T06:49:42;95597.69;;;7.09;44.50
6393;BME280;3229;42.674;23.282;2023-02-12T06:52:09;95595.22;;;7.07;44.94
6393;BME280;3229;42.674;23.282;2023-02-12T06:54:36;95602.69;;;7.10;44.78
6393;BME280;3229;42.674;23.282;2023-02-12T06:57:03;95603.38;;;7.12;44.82
6393;BME280;3229;42.674;23.282;2023-02-12T06:59:29;95603.31;;;7.14;44.99
6393;BME280;3229;42.674;23.282;2023-02-12T07:01:56;95602.38;;;7.15;45.04
6393;BME280;3229;42.674;23.282;2023-02-12T07:04:23;95603.13;;;7.17;44.88
6393;BME280;3229;42.674;23.282;2023-02-12T07:06:51;95588.41;;;7.08;44.98
6393;BME280;3229;42.674;23.282;2023-02-12T07:09:18;95605.47;;;7.20;44.96
6393;BME280;3229;42.674;23.282;2023-02-12T07:11:45;95601.13;;;7.22;45.11
6393;BME280;3229;42.674;23.282;2023-02-12T07:14:13;95608.63;;;7.23;44.99
6393;BME280;3229;42.674;23.282;2023-02-12T07:16:40;95591.00;;;7.20;44.99
6393;BME280;3229;42.674;23.282;2023-02-12T07:19:08;95603.38;;;7.26;45.15
6393;BME280;3229;42.674;23.282;2023-02-12T07:21:37;95598.06;;;7.29;45.22
6393;BME280;3229;42.674;23.282;2023-02-12T07:24:05;95588.19;;;7.25;45.10
6393;BME280;3229;42.674;23.282;2023-02-12T07:26:36;95601.34;;;7.32;45.10
6393;BME280;3229;42.674;23.282;2023-02-12T07:29:03;95590.44;;;7.29;45.24
6393;BME280;3229;42.674;23.282;2023-02-12T07:31:30;95611.88;;;7.40;45.37
6393;BME280;3229;42.674;23.282;2023-02-12T07:33:58;95603.22;;;7.42;45.32
6393;BME280;3229;42.674;23.282;2023-02-12T07:36:27;95582.72;;;7.31;45.24
6393;BME280;3229;42.674;23.282;2023-02-12T07:38:55;95611.59;;;7.44;45.38
6393;BME280;3229;42.674;23.282;2023-02-12T07:41:26;95595.06;;;7.37;45.42
6393;BME280;3229;42.674;23.282;2023-02-12T07:43:55;95612.09;;;7.49;45.30
6393;BME280;3229;42.674;23.282;2023-02-12T07:46:24;95621.28;;;7.52;45.58
6393;BME280;3229;42.674;23.282;2023-02-12T07:48:54;95633.00;;;7.54;45.46
6393;BME280;3229;42.674;23.282;2023-02-12T07:51:22;95636.28;;;7.57;45.55
6393;BME280;3229;42.674;23.282;2023-02-12T07:53:49;95632.81;;;7.58;45.44
6393;BME280;3229;42.674;23.282;2023-02-12T07:56:18;95633.63;;;7.58;45.53
6393;BME280;3229;42.674;23.282;2023-02-12T07:58:48;95628.53;;;7.58;45.45
6393;BME280;3229;42.674;23.282;2023-02-12T08:01:17;95632.00;;;7.57;45.70
6393;BME280;3229;42.674;23.282;2023-02-12T08:03:45;95636.97;;;7.59;45.61
6393;BME280;3229;42.674;23.282;2023-02-12T08:06:14;95646.25;;;7.60;45.71
6393;BME280;3229;42.674;23.282;2023-02-12T08:08:42;95639.44;;;7.60;45.74
6393;BME280;3229;42.674;23.282;2023-02-12T08:11:09;95632.69;;;7.59;45.86
6393;BME280;3229;42.674;23.282;2023-02-12T08:13:37;95635.16;;;7.61;45.86
6393;BME280;3229;42.674;23.282;2023-02-12T08:16:07;95626.16;;;7.55;46.02
6393;BME280;3229;42.674;23.282;2023-02-12T08:18:34;95631.72;;;7.62;46.03
6393;BME280;3229;42.674;23.282;2023-02-12T08:21:02;95593.16;;;7.41;46.02
6393;BME280;3229;42.674;23.282;2023-02-12T08:23:30;95628.88;;;7.66;46.07
6393;BME280;3229;42.674;23.282;2023-02-12T08:26:07;95631.00;;;7.72;46.11
6393;BME280;3229;42.674;23.282;2023-02-12T08:28:36;95642.63;;;7.76;46.13
6393;BME280;3229;42.674;23.282;2023-02-12T08:31:07;95642.44;;;7.79;46.26
6393;BME280;3229;42.674;23.282;2023-02-12T08:33:34;95651.72;;;7.80;46.30
6393;BME280;3229;42.674;23.282;2023-02-12T08:36:02;95654.19;;;7.82;46.33
6393;BME280;3229;42.674;23.282;2023-02-12T08:38:30;95633.78;;;7.69;46.35
6393;BME280;3229;42.674;23.282;2023-02-12T08:41:00;95668.38;;;7.86;46.27
6393;BME280;3229;42.674;23.282;2023-02-12T08:43:27;95649.16;;;7.80;46.31
6393;BME280;3229;42.674;23.282;2023-02-12T08:45:54;95656.16;;;7.91;46.37
6393;BME280;3229;42.674;23.282;2023-02-12T08:48:23;95674.59;;;7.95;46.32
6393;BME280;3229;42.674;23.282;2023-02-12T08:50:50;95668.47;;;7.97;46.30
6393;BME280;3229;42.674;23.282;2023-02-12T08:53:17;95669.22;;;7.99;46.23
6393;BME280;3229;42.674;23.282;2023-02-12T08:55:47;95669.91;;;8.01;46.25
6393;BME280;3229;42.674;23.282;2023-02-12T08:58:14;95672.16;;;8.06;46.51
6393;BME280;3229;42.674;23.282;2023-02-12T09:00:41;95678.81;;;8.09;46.46
6393;BME280;3229;42.674;23.282;2023-02-12T09:03:07;95681.13;;;8.12;46.42
6393;BME280;3229;42.674;23.282;2023-02-12T09:05:38;95682.69;;;8.14;46.53
6393;BME280;3229;42.674;23.282;2023-02-12T09:08:06;95669.53;;;8.08;46.40
6393;BME280;3229;42.674;23.282;2023-02-12T09:10:33;95693.41;;;8.19;46.46
6393;BME280;3229;42.674;23.282;2023-02-12T09:13:00;95695.88;;;8.21;46.37
6393;BME280;3229;42.674;23.282;2023-02-12T09:15:27;95700.84;;;8.22;46.51
6393;BME280;3229;42.674;23.282;2023-02-12T09:17:53;95698.19;;;8.24;46.58
6393;BME280;3229;42.674;23.282;2023-02-12T09:20:20;95698.94;;;8.26;46.61
6393;BME280;3229;42.674;23.282;2023-02-12T09:22:48;95700.44;;;8.28;46.62
6393;BME280;3229;42.674;23.282;2023-02-12T09:25:15;95701.88;;;8.33;46.56
6393;BME280;3229;42.674;23.282;2023-02-12T09:27:42;95697.41;;;8.36;46.48
6393;BME280;3229;42.674;23.282;2023-02-12T09:30:10;95696.94;;;8.44;46.44
6393;BME280;3229;42.674;23.282;2023-02-12T09:32:37;95702.44;;;8.50;46.39
6393;BME280;3229;42.674;23.282;2023-02-12T09:35:04;95698.69;;;8.56;46.51
6393;BME280;3229;42.674;23.282;2023-02-12T09:37:31;95700.84;;;8.62;46.44
6393;BME280;3229;42.674;23.282;2023-02-12T09:39:59;95707.25;;;8.68;46.37
6393;BME280;3229;42.674;23.282;2023-02-12T09:42:43;95703.47;;;9.37;79.28
6393;BME280;3229;42.674;23.282;2023-02-12T09:45:19;95699.63;;;10.51;81.20
6393;BME280;3229;42.674;23.282;2023-02-12T09:47:51;95697.25;;;11.51;77.49
6393;BME280;3229;42.674;23.282;2023-02-12T09:50:33;95691.81;;;12.31;73.19
6393;BME280;3229;42.674;23.282;2023-02-12T09:53:03;95715.84;;;12.72;69.63
6393;BME280;3229;42.674;23.282;2023-02-12T09:55:33;95716.09;;;12.69;66.38
6393;BME280;3229;42.674;23.282;2023-02-12T09:58:03;95718.16;;;12.54;64.16
6393;BME280;3229;42.674;23.282;2023-02-12T10:00:32;95726.41;;;12.37;62.30
6393;BME280;3229;42.674;23.282;2023-02-12T10:03:01;95712.38;;;12.20;60.77
6393;BME280;3229;42.674;23.282;2023-02-12T10:05:31;95715.31;;;12.04;59.65
6393;BME280;3229;42.674;23.282;2023-02-12T10:08:16;95714.66;;;11.91;58.19
6393;BME280;3229;42.674;23.282;2023-02-12T10:10:52;95711.97;;;11.81;57.65
6393;BME280;3229;42.674;23.282;2023-02-12T10:13:34;95707.44;;;11.73;56.61
6393;BME280;3229;42.674;23.282;2023-02-12T10:16:09;95723.31;;;11.67;55.82
6393;BME280;3229;42.674;23.282;2023-02-12T10:18:53;95713.31;;;11.53;55.15
6393;BME280;3229;42.674;23.282;2023-02-12T10:21:43;95713.66;;;11.48;54.37
6393;BME280;3229;42.674;23.282;2023-02-12T10:24:26;95712.03;;;11.47;53.92
6393;BME280;3229;42.674;23.282;2023-02-12T10:27:02;95707.72;;;11.48;53.58
6393;BME280;3229;42.674;23.282;2023-02-12T10:29:33;95709.09;;;11.52;53.41
6393;BME280;3229;42.674;23.282;2023-02-12T10:32:03;95705.38;;;11.56;52.72
6393;BME280;3229;42.674;23.282;2023-02-12T10:34:34;95708.41;;;11.61;52.15
6393;BME280;3229;42.674;23.282;2023-02-12T10:37:03;95712.59;;;11.62;51.79
6393;BME280;3229;42.674;23.282;2023-02-12T10:39:34;95716.91;;;11.62;51.52
6393;BME280;3229;42.674;23.282;2023-02-12T10:42:09;95715.63;;;11.56;51.23
6393;BME280;3229;42.674;23.282;2023-02-12T10:44:38;95720.06;;;11.54;51.04
6393;BME280;3229;42.674;23.282;2023-02-12T10:47:05;95720.06;;;11.54;50.55
6393;BME280;3229;42.674;23.282;2023-02-12T10:49:33;95717.59;;;11.52;50.47
6393;BME280;3229;42.674;23.282;2023-02-12T10:52:07;95719.25;;;11.53;50.24
6393;BME280;3229;42.674;23.282;2023-02-12T10:54:39;95718.19;;;11.56;50.02
6393;BME280;3229;42.674;23.282;2023-02-12T10:57:14;95722.84;;;11.62;49.55
6393;BME280;3229;42.674;23.282;2023-02-12T10:59:43;95710.50;;;11.67;49.37
6393;BME280;3229;42.674;23.282;2023-02-12T11:02:22;95710.47;;;11.78;49.00
6393;BME280;3229;42.674;23.282;2023-02-12T11:04:52;95701.41;;;11.74;48.90
6393;BME280;3229;42.674;23.282;2023-02-12T11:07:20;95717.50;;;11.88;48.71
6393;BME280;3229;42.674;23.282;2023-02-12T11:09:48;95717.50;;;11.88;48.92
6393;BME280;3229;42.674;23.282;2023-02-12T11:12:25;95710.72;;;11.87;48.48
6393;BME280;3229;42.674;23.282;2023-02-12T11:14:56;95714.78;;;11.89;48.54
6393;BME280;3229;42.674;23.282;2023-02-12T11:17:26;95715.59;;;11.90;48.43
6393;BME280;3229;42.674;23.282;2023-02-12T11:20:05;95707.66;;;11.81;48.27
6393;BME280;3229;42.674;23.282;2023-02-12T11:22:48;95713.75;;;11.92;48.19
6393;BME280;3229;42.674;23.282;2023-02-12T11:25:16;95710.13;;;11.94;48.03
6393;BME280;3229;42.674;23.282;2023-02-12T11:27:58;95715.69;;;11.99;47.87
6393;BME280;3229;42.674;23.282;2023-02-12T11:30:25;95718.91;;;12.13;47.81
6393;BME280;3229;42.674;23.282;2023-02-12T11:32:52;95716.53;;;12.21;47.99
6393;BME280;3229;42.674;23.282;2023-02-12T11:35:20;95710.94;;;12.27;48.41
6393;BME280;3229;42.674;23.282;2023-02-12T11:37:52;95706.13;;;12.34;48.84
6393;BME280;3229;42.674;23.282;2023-02-12T11:40:21;95707.50;;;12.38;48.75
6393;BME280;3229;42.674;23.282;2023-02-12T11:42:52;95717.41;;;12.42;48.50
6393;BME280;3229;42.674;23.282;2023-02-12T11:45:24;95709.31;;;12.47;48.57
6393;BME280;3229;42.674;23.282;2023-02-12T11:47:52;95702.34;;;12.49;48.57
6393;BME280;3229;42.674;23.282;2023-02-12T11:50:24;95703.72;;;12.53;48.23
6393;BME280;3229;42.674;23.282;2023-02-12T11:52:55;95706.56;;;12.60;47.92
6393;BME280;3229;42.674;23.282;2023-02-12T11:55:25;95714.84;;;12.63;47.93
6393;BME280;3229;42.674;23.282;2023-02-12T11:58:01;95715.41;;;12.67;47.52
6393;BME280;3229;42.674;23.282;2023-02-12T12:00:32;95715.28;;;12.68;47.48
6393;BME280;3229;42.674;23.282;2023-02-12T12:03:06;95710.84;;;12.70;47.30
6393;BME280;3229;42.674;23.282;2023-02-12T12:05:40;95715.19;;;12.70;47.42
6393;BME280;3229;42.674;23.282;2023-02-12T12:08:13;95717.84;;;12.68;47.02
6393;BME280;3229;42.674;23.282;2023-02-12T12:10:46;95715.41;;;12.67;47.26
6393;BME280;3229;42.674;23.282;2023-02-12T12:13:19;95721.34;;;12.67;47.00
6393;BME280;3229;42.674;23.282;2023-02-12T12:15:51;95718.34;;;12.62;47.02
6393;BME280;3229;42.674;23.282;2023-02-12T12:18:44;95717.66;;;12.60;46.95
6393;BME280;3229;42.674;23.282;2023-02-12T12:21:38;95714.97;;;12.62;46.82
6393;BME280;3229;42.674;23.282;2023-02-12T12:24:10;95691.38;;;12.47;46.60
6393;BME280;3229;42.674;23.282;2023-02-12T12:26:44;95712.41;;;12.62;46.43
6393;BME280;3229;42.674;23.282;2023-02-12T12:29:18;95727.81;;;12.62;46.38
6393;BME280;3229;42.674;23.282;2023-02-12T12:31:52;95723.72;;;12.59;46.46
6393;BME280;3229;42.674;23.282;2023-02-12T12:34:23;95721.31;;;12.58;46.25
6393;BME280;3229;42.674;23.282;2023-02-12T12:37:09;95720.03;;;12.52;46.25
6393;BME280;3229;42.674;23.282;2023-02-12T12:39:47;95726.00;;;12.52;46.15
6393;BME280;3229;42.674;23.282;2023-02-12T12:42:42;95726.09;;;12.51;46.27
6393;BME280;3229;42.674;23.282;2023-02-12T12:45:29;95714.25;;;12.39;46.25
6393;BME280;3229;42.674;23.282;2023-02-12T12:48:09;95726.47;;;12.46;46.04
6393;BME280;3229;42.674;23.282;2023-02-12T12:50:51;95733.72;;;12.41;46.17
6393;BME280;3229;42.674;23.282;2023-02-12T12:53:32;95732.22;;;12.39;46.14
6393;BME280;3229;42.674;23.282;2023-02-12T12:56:21;95734.59;;;12.30;46.23
6393;BME280;3229;42.674;23.282;2023-02-12T12:59:08;95721.22;;;12.16;46.08
6393;BME280;3229;42.674;23.282;2023-02-12T13:04:49;95748.13;;;12.21;46.06
6393;BME280;3229;42.674;23.282;2023-02-12T13:07:30;95750.03;;;12.19;46.00
6393;BME280;3229;42.674;23.282;2023-02-12T13:10:18;95736.19;;;12.11;46.12
6393;BME280;3229;42.674;23.282;2023-02-12T13:13:12;95753.88;;;12.14;46.06
6393;BME280;3229;42.674;23.282;2023-02-12T13:15:46;95755.16;;;12.08;46.01
6393;BME280;3229;42.674;23.282;2023-02-12T13:18:27;95751.47;;;12.01;46.09
6393;BME280;3229;42.674;23.282;2023-02-12T13:21:03;95753.69;;;11.94;45.98
6393;BME280;3229;42.674;23.282;2023-02-12T13:23:37;95755.81;;;11.89;46.08
6393;BME280;3229;42.674;23.282;2023-02-12T13:26:10;95753.81;;;11.81;46.14
6393;BME280;3229;42.674;23.282;2023-02-12T13:28:43;95768.38;;;11.81;45.96
6393;BME280;3229;42.674;23.282;2023-02-12T13:31:14;95726.00;;;11.54;45.95
6393;BME280;3229;42.674;23.282;2023-02-12T13:33:46;95762.19;;;11.72;46.12
6393;BME280;3229;42.674;23.282;2023-02-12T13:36:16;95755.69;;;11.68;46.22
6393;BME280;3229;42.674;23.282;2023-02-12T13:38:46;95758.25;;;11.68;46.10
6393;BME280;3229;42.674;23.282;2023-02-12T13:41:14;95755.81;;;11.67;46.07
6393;BME280;3229;42.674;23.282;2023-02-12T13:43:54;95762.78;;;11.65;46.01